Time;durP1;ratioP1;P1;durP2;ratioP2;P2;SDS_P1;SDS_P2;PMS_P1;PMS_P2;Temp;Humidity;BMP_temperature;BMP_pressure;BME280_temperature;BME280_humidity;BME280_pressure;Samples;Min_cycle;Max_cycle;Signal;HPM_P1;HPM_P2
2022/07/23 00:02:15;;;;;;;43.22;24.77;;;19.20;99.90;;;;;;5008169;28;20489;-69
2022/07/23 00:04:40;;;;;;;35.25;22.00;;;19.20;99.90;;;;;;5008413;28;20038;-68
2022/07/23 00:07:06;;;;;;;36.53;21.88;;;19.10;99.90;;;;;;5009765;28;20064;-67
2022/07/23 00:09:32;;;;;;;36.90;22.45;;;19.10;99.90;;;;;;5007265;28;20025;-69
2022/07/23 00:11:57;;;;;;;33.42;20.52;;;19.10;99.90;;;;;;5009311;28;20030;-68
2022/07/23 00:14:23;;;;;;;35.92;21.30;;;19.00;99.90;;;;;;5008581;28;20025;-69
2022/07/23 00:16:48;;;;;;;33.40;20.58;;;19.00;99.90;;;;;;5010282;28;20396;-67
2022/07/23 00:19:14;;;;;;;35.58;21.05;;;18.90;99.90;;;;;;5009952;28;20064;-68
2022/07/23 00:21:39;;;;;;;32.75;21.15;;;18.90;99.90;;;;;;4991961;28;20038;-67
2022/07/23 00:24:05;;;;;;;40.03;22.83;;;18.90;99.90;;;;;;5009118;28;20041;-68
2022/07/23 00:26:31;;;;;;;43.63;25.13;;;18.80;99.90;;;;;;5008866;28;20026;-69
2022/07/23 00:28:56;;;;;;;40.60;25.10;;;18.70;99.90;;;;;;5009462;28;20113;-67
2022/07/23 00:31:22;;;;;;;41.20;24.58;;;18.60;99.90;;;;;;5009108;28;20192;-68
2022/07/23 00:33:47;;;;;;;45.92;26.45;;;18.60;99.90;;;;;;5009846;28;20060;-67
2022/07/23 00:36:13;;;;;;;44.50;25.77;;;18.50;99.90;;;;;;5009079;28;20149;-67
2022/07/23 00:38:38;;;;;;;45.60;24.38;;;18.50;99.90;;;;;;5009333;28;20022;-68
2022/07/23 00:41:04;;;;;;;43.80;25.02;;;18.40;99.90;;;;;;5008466;28;20053;-68
2022/07/23 00:43:30;;;;;;;34.63;21.52;;;18.40;99.90;;;;;;5009246;28;20030;-68
2022/07/23 00:45:55;;;;;;;36.53;21.70;;;18.30;99.90;;;;;;4999581;28;20037;-68
2022/07/23 00:48:21;;;;;;;34.40;20.20;;;18.30;99.90;;;;;;5009551;28;20026;-68
2022/07/23 00:50:46;;;;;;;30.27;19.30;;;18.30;99.90;;;;;;5007269;28;20115;-68
2022/07/23 00:53:12;;;;;;;32.53;19.35;;;18.20;99.90;;;;;;5008669;28;20423;-67
2022/07/23 00:55:38;;;;;;;38.90;19.23;;;18.20;99.90;;;;;;5006311;28;20034;-67
2022/07/23 00:58:04;;;;;;;34.78;18.50;;;18.20;99.90;;;;;;5008074;28;20033;-68
2022/07/23 01:00:30;;;;;;;33.78;17.63;;;18.20;99.90;;;;;;5008302;28;20562;-67
2022/07/23 01:02:56;;;;;;;25.02;15.98;;;18.20;99.90;;;;;;5008443;28;21618;-69
2022/07/23 01:05:24;;;;;;;24.23;14.32;;;18.20;99.90;;;;;;5008513;28;20093;-69
2022/07/23 01:07:51;;;;;;;25.42;13.95;;;18.20;99.90;;;;;;5008298;28;20041;-69
2022/07/23 01:10:32;;;;;;;27.80;15.32;;;18.20;99.90;;;;;;5012179;28;20392;-68
2022/07/23 01:12:58;;;;;;;26.02;15.38;;;18.20;99.90;;;;;;5009917;28;20544;-67
2022/07/23 01:15:24;;;;;;;23.65;14.25;;;18.20;99.90;;;;;;5011683;28;20057;-66
2022/07/23 01:17:50;;;;;;;21.55;13.75;;;18.30;99.90;;;;;;5012057;28;20052;-67
2022/07/23 01:20:15;;;;;;;26.60;15.35;;;18.20;99.90;;;;;;4995327;28;20488;-67
2022/07/23 01:22:41;;;;;;;31.35;16.58;;;18.20;99.90;;;;;;5012020;28;20034;-67
2022/07/23 01:25:07;;;;;;;29.50;17.38;;;18.10;99.90;;;;;;5011221;28;20040;-66
2022/07/23 01:27:32;;;;;;;25.35;17.35;;;18.00;99.90;;;;;;5008656;28;20033;-67
2022/07/23 01:30:00;;;;;;;31.15;17.70;;;17.90;99.90;;;;;;5012942;28;20092;-67
2022/07/23 01:32:26;;;;;;;27.88;17.30;;;17.90;99.90;;;;;;5010276;28;20117;-67
2022/07/23 01:34:52;;;;;;;34.15;18.73;;;17.80;99.90;;;;;;5010621;28;20108;-67
2022/07/23 01:37:17;;;;;;;39.97;20.00;;;17.70;99.90;;;;;;5010879;28;20416;-68
2022/07/23 01:39:43;;;;;;;36.85;21.52;;;17.60;99.90;;;;;;5011513;28;20037;-69
2022/07/23 01:42:08;;;;;;;32.00;20.08;;;17.50;99.90;;;;;;5018068;28;20045;-67
2022/07/23 01:44:34;;;;;;;39.90;23.30;;;17.40;99.90;;;;;;4994346;28;20029;-67
2022/07/23 01:46:59;;;;;;;41.15;23.30;;;17.30;99.90;;;;;;5009079;28;20029;-67
2022/07/23 01:49:25;;;;;;;47.40;25.95;;;17.10;99.90;;;;;;5012770;28;20022;-67
2022/07/23 01:51:59;;;;;;;45.55;25.35;;;17.00;99.90;;;;;;5011572;28;20790;-67
2022/07/23 01:54:32;;;;;;;;;;;16.90;99.90;;;;;;5012133;28;20481;-67
2022/07/23 01:56:58;;;;;;;56.47;26.95;;;16.80;99.90;;;;;;5010416;28;19909;-67
2022/07/23 01:59:25;;;;;;;47.65;25.90;;;16.70;99.90;;;;;;5011549;28;20500;-67
2022/07/23 02:01:50;;;;;;;49.95;28.52;;;16.70;99.90;;;;;;5012413;28;20381;-67
2022/07/23 02:04:24;;;;;;;57.33;28.30;;;16.70;99.90;;;;;;5012086;28;20040;-67
2022/07/23 02:06:50;;;;;;;58.33;31.30;;;16.70;99.90;;;;;;5007692;28;20054;-67
2022/07/23 02:09:16;;;;;;;57.03;30.90;;;16.70;99.90;;;;;;5011909;28;20029;-67
2022/07/23 02:11:42;;;;;;;62.55;32.30;;;16.60;99.90;;;;;;5006378;28;20551;-67
2022/07/23 02:14:07;;;;;;;57.80;32.67;;;16.60;99.90;;;;;;5012143;28;20037;-67
2022/07/23 02:16:33;;;;;;;68.75;32.08;;;16.60;99.90;;;;;;5009633;28;20032;-67
2022/07/23 02:18:59;;;;;;;66.57;32.50;;;16.50;99.90;;;;;;5010187;28;20500;-66
2022/07/23 02:21:24;;;;;;;77.97;34.92;;;16.50;99.90;;;;;;5009916;28;20030;-66
2022/07/23 02:23:50;;;;;;;74.10;34.63;;;16.50;99.90;;;;;;5011058;28;20060;-68
2022/07/23 02:26:15;;;;;;;67.20;34.72;;;16.40;99.90;;;;;;5005874;28;20489;-67
2022/07/23 02:28:41;;;;;;;76.47;35.90;;;16.40;99.90;;;;;;5012267;28;20026;-67
2022/07/23 02:31:07;;;;;;;74.20;36.80;;;16.30;99.90;;;;;;5009945;28;20057;-67
2022/07/23 02:33:33;;;;;;;72.05;36.42;;;16.30;99.90;;;;;;5011170;28;20579;-66
2022/07/23 02:35:59;;;;;;;70.57;37.33;;;16.30;99.90;;;;;;5008489;28;20026;-67
2022/07/23 02:38:25;;;;;;;66.43;33.22;;;16.40;99.90;;;;;;5010687;28;20189;-67
2022/07/23 02:40:50;;;;;;;69.90;34.13;;;16.40;99.90;;;;;;5009395;28;20488;-67
2022/07/23 02:43:16;;;;;;;60.47;33.00;;;16.50;99.90;;;;;;5010994;28;20021;-66
2022/07/23 02:45:41;;;;;;;68.97;33.83;;;16.50;99.90;;;;;;5008373;28;20821;-67
2022/07/23 02:48:07;;;;;;;62.65;33.38;;;16.50;99.90;;;;;;5010250;28;20508;-67
2022/07/23 02:50:32;;;;;;;69.80;34.03;;;16.40;99.90;;;;;;5010956;28;20034;-67
2022/07/23 02:52:58;;;;;;;71.38;35.47;;;16.40;99.90;;;;;;5010325;28;20033;-67
2022/07/23 02:55:24;;;;;;;67.10;33.20;;;16.40;99.90;;;;;;5008888;28;20026;-67
2022/07/23 02:57:49;;;;;;;64.55;32.70;;;16.40;99.90;;;;;;5010498;28;20400;-66
2022/07/23 03:00:15;;;;;;;62.60;34.22;;;16.50;99.90;;;;;;5009773;28;20026;-66
2022/07/23 03:02:40;;;;;;;60.50;31.23;;;16.40;99.90;;;;;;5009973;28;20532;-66
2022/07/23 03:05:06;;;;;;;70.28;35.17;;;16.40;99.90;;;;;;5025588;23;20049;-60
2022/07/23 03:07:32;;;;;;;57.78;33.38;;;16.40;99.90;;;;;;5008740;28;20018;-57
2022/07/23 03:09:57;;;;;;;61.83;34.25;;;16.30;99.90;;;;;;5010925;28;20045;-59
2022/07/23 03:12:23;;;;;;;55.97;32.75;;;16.30;99.90;;;;;;5006824;28;20447;-60
2022/07/23 03:14:48;;;;;;;70.15;35.08;;;16.30;99.90;;;;;;5006688;28;20476;-60
2022/07/23 03:17:14;;;;;;;67.28;37.30;;;16.20;99.90;;;;;;5009293;28;20050;-60
2022/07/23 03:19:40;;;;;;;68.00;34.58;;;16.20;99.90;;;;;;5011243;28;20108;-60
2022/07/23 03:22:05;;;;;;;65.38;34.85;;;16.20;99.90;;;;;;5010108;28;20503;-59
2022/07/23 03:27:15;;;;;;;71.40;36.92;;;16.10;99.90;;;;;;5009192;28;20040;-59
2022/07/23 03:29:41;;;;;;;72.47;35.72;;;16.10;99.90;;;;;;5008969;28;20506;-60
2022/07/23 03:32:06;;;;;;;74.20;37.40;;;16.00;99.90;;;;;;5007838;28;20209;-60
2022/07/23 03:34:32;;;;;;;75.65;36.03;;;16.00;99.90;;;;;;5008216;28;20044;-59
2022/07/23 03:36:57;;;;;;;65.72;36.90;;;16.00;99.90;;;;;;5009859;28;20101;-60
2022/07/23 03:39:23;;;;;;;74.40;37.33;;;16.00;99.90;;;;;;5010518;28;20021;-60
2022/07/23 03:41:48;;;;;;;69.13;36.47;;;15.90;99.90;;;;;;5008792;28;20050;-59
2022/07/23 03:44:14;;;;;;;73.43;36.67;;;15.80;99.90;;;;;;5009702;28;20053;-60
2022/07/23 03:46:39;;;;;;;64.15;36.00;;;15.70;99.90;;;;;;5010846;28;20556;-59
2022/07/23 03:49:05;;;;;;;73.03;37.78;;;15.70;99.90;;;;;;5010712;28;20049;-60
2022/07/23 03:51:31;;;;;;;82.65;39.15;;;15.70;99.90;;;;;;5009583;28;20065;-59
2022/07/23 03:53:56;;;;;;;74.93;36.33;;;15.70;99.90;;;;;;5009285;28;20404;-59
2022/07/23 03:56:22;;;;;;;65.68;33.70;;;15.70;99.90;;;;;;5009398;28;20022;-60
2022/07/23 03:58:47;;;;;;;63.58;34.63;;;15.80;99.90;;;;;;5009381;28;20174;-59
2022/07/23 04:01:13;;;;;;;60.63;34.75;;;15.90;99.90;;;;;;5009928;28;20037;-60
2022/07/23 04:03:39;;;;;;;65.28;35.03;;;15.90;99.90;;;;;;5009674;28;20053;-60
2022/07/23 04:06:05;;;;;;;72.57;34.78;;;15.90;99.90;;;;;;5009731;28;20480;-60
2022/07/23 04:08:31;;;;;;;73.40;35.80;;;15.90;99.90;;;;;;5009439;28;20026;-60
2022/07/23 04:10:57;;;;;;;69.47;34.05;;;15.90;99.90;;;;;;5008118;28;20033;-59
2022/07/23 04:13:23;;;;;;;64.85;33.53;;;15.90;99.90;;;;;;5009356;28;20026;-58
2022/07/23 04:15:50;;;;;;;66.03;34.78;;;15.90;99.90;;;;;;5009389;28;20389;-59
2022/07/23 04:18:17;;;;;;;55.47;32.50;;;15.90;99.90;;;;;;5010944;28;20069;-59
2022/07/23 04:20:43;;;;;;;63.83;35.40;;;15.90;99.90;;;;;;5010082;28;20105;-60
2022/07/23 04:23:09;;;;;;;67.70;34.72;;;15.90;99.90;;;;;;5009241;28;20033;-60
2022/07/23 04:25:35;;;;;;;68.97;35.95;;;15.90;99.90;;;;;;5009019;28;20057;-59
2022/07/23 04:28:00;;;;;;;64.22;34.05;;;15.90;99.90;;;;;;5008379;28;20510;-59
2022/07/23 04:30:26;;;;;;;74.70;38.42;;;15.90;99.90;;;;;;5007867;28;20122;-60
2022/07/23 04:32:51;;;;;;;73.80;36.53;;;15.90;99.90;;;;;;5007892;28;20472;-60
2022/07/23 04:35:17;;;;;;;80.50;40.38;;;15.90;99.90;;;;;;5007499;28;20018;-60
2022/07/23 04:37:42;;;;;;;83.78;41.22;;;15.90;99.90;;;;;;5008618;28;20026;-59
2022/07/23 04:40:09;;;;;;;90.15;42.33;;;15.90;99.90;;;;;;5008503;28;20038;-59
2022/07/23 04:42:34;;;;;;;85.75;39.55;;;15.90;99.90;;;;;;5008287;28;20036;-58
2022/07/23 04:45:00;;;;;;;75.28;38.97;;;15.90;99.90;;;;;;5008206;28;20113;-60
2022/07/23 04:47:25;;;;;;;91.35;42.85;;;15.90;99.90;;;;;;5009474;28;20033;-60
2022/07/23 04:49:51;;;;;;;93.03;42.92;;;15.90;99.90;;;;;;5008216;28;20033;-60
2022/07/23 04:52:16;;;;;;;102.75;42.72;;;15.90;99.90;;;;;;5008503;28;20044;-60
2022/07/23 04:54:42;;;;;;;93.80;44.88;;;15.90;99.90;;;;;;5003936;28;20026;-59
2022/07/23 04:57:07;;;;;;;91.35;41.83;;;15.90;99.90;;;;;;5007287;28;20029;-59
2022/07/23 04:59:33;;;;;;;85.95;43.80;;;15.90;99.90;;;;;;5008975;28;20029;-59
2022/07/23 05:01:58;;;;;;;90.18;44.67;;;16.00;99.90;;;;;;5008502;28;20038;-58
2022/07/23 05:04:24;;;;;;;92.95;46.47;;;16.00;99.90;;;;;;5007818;28;20056;-59
2022/07/23 05:06:50;;;;;;;107.68;46.78;;;16.10;99.90;;;;;;5009257;28;20077;-60
2022/07/23 05:09:15;;;;;;;106.53;49.67;;;16.10;99.90;;;;;;4998713;28;20157;-59
2022/07/23 05:11:40;;;;;;;100.15;47.60;;;16.10;99.90;;;;;;5008265;28;20034;-59
2022/07/23 05:14:06;;;;;;;102.43;48.10;;;16.20;99.90;;;;;;5007198;28;20030;-59
2022/07/23 05:16:32;;;;;;;107.70;47.22;;;16.20;99.90;;;;;;5007939;28;20503;-60
2022/07/23 05:18:57;;;;;;;89.35;42.65;;;16.20;99.90;;;;;;5008799;28;20022;-60
2022/07/23 05:21:23;;;;;;;97.22;44.83;;;16.30;99.90;;;;;;5007028;28;20088;-59
2022/07/23 05:23:48;;;;;;;74.47;38.60;;;16.30;99.90;;;;;;5008315;28;20079;-60
2022/07/23 05:26:14;;;;;;;81.47;42.15;;;16.30;99.90;;;;;;5008417;28;20373;-58
2022/07/23 05:28:39;;;;;;;97.93;42.10;;;16.40;99.90;;;;;;5007940;28;20030;-59
2022/07/23 05:31:05;;;;;;;83.30;42.15;;;16.40;99.90;;;;;;5007538;28;20026;-60
2022/07/23 05:33:31;;;;;;;74.78;37.03;;;16.40;99.90;;;;;;5005908;28;20670;-58
2022/07/23 05:36:02;;;;;;;93.90;42.47;;;16.50;99.90;;;;;;5009279;28;20065;-57
2022/07/23 05:38:27;;;;;;;88.07;41.25;;;16.50;99.90;;;;;;5005624;28;20018;-60
2022/07/23 05:40:53;;;;;;;93.30;41.88;;;16.50;99.90;;;;;;5009268;28;20502;-59
2022/07/23 05:43:18;;;;;;;90.47;42.72;;;16.60;99.90;;;;;;5005816;28;20516;-58
2022/07/23 05:45:44;;;;;;;82.03;42.08;;;16.60;99.90;;;;;;5008512;28;20030;-60
2022/07/23 05:48:09;;;;;;;92.22;43.03;;;16.60;99.90;;;;;;5003653;28;20026;-59
2022/07/23 05:50:35;;;;;;;82.22;41.13;;;16.70;99.90;;;;;;5008232;28;20030;-59
2022/07/23 05:53:00;;;;;;;81.90;41.33;;;16.70;99.90;;;;;;5008470;28;20503;-60
2022/07/23 05:55:28;;;;;;;78.50;39.38;;;16.70;99.90;;;;;;5011044;28;20022;-60
2022/07/23 05:57:58;;;;;;;82.00;41.78;;;16.70;99.90;;;;;;5011648;28;20641;-59
2022/07/23 06:00:24;;;;;;;87.20;43.90;;;16.70;99.90;;;;;;5011184;28;20026;-59
2022/07/23 06:02:50;;;;;;;93.10;43.55;;;16.80;99.90;;;;;;5010610;28;20117;-59
2022/07/23 06:05:15;;;;;;;91.18;42.58;;;16.80;99.90;;;;;;5010836;28;20064;-60
2022/07/23 06:07:41;;;;;;;102.63;44.70;;;16.90;99.90;;;;;;5008507;28;20457;-59
2022/07/23 06:10:07;;;;;;;83.10;40.75;;;16.90;99.90;;;;;;5003931;28;20035;-58
2022/07/23 06:12:32;;;;;;;82.85;41.58;;;16.90;99.90;;;;;;5011705;28;20444;-58
2022/07/23 06:14:58;;;;;;;87.15;41.22;;;17.00;99.90;;;;;;5003319;28;20038;-60
2022/07/23 06:17:24;;;;;;;81.57;40.10;;;17.00;99.90;;;;;;5007476;28;20029;-59
2022/07/23 06:19:50;;;;;;;80.07;38.90;;;17.00;99.90;;;;;;5003415;28;20484;-60
2022/07/23 06:22:15;;;;;;;80.72;40.13;;;17.10;99.90;;;;;;5006239;28;20539;-59
2022/07/23 06:24:41;;;;;;;74.97;37.58;;;17.10;99.90;;;;;;5003843;28;20056;-58
2022/07/23 06:27:06;;;;;;;74.65;35.55;;;17.20;99.90;;;;;;5006534;28;20659;-58
2022/07/23 06:29:32;;;;;;;74.35;35.50;;;17.20;99.90;;;;;;5010684;28;20447;-60
2022/07/23 06:31:58;;;;;;;70.35;35.20;;;17.20;99.90;;;;;;5001542;28;20113;-59
2022/07/23 06:34:23;;;;;;;67.93;33.75;;;17.20;99.90;;;;;;5012089;28;20039;-59
2022/07/23 06:36:49;;;;;;;57.00;31.60;;;17.20;99.90;;;;;;5003899;28;20072;-59
2022/07/23 06:39:14;;;;;;;58.75;29.48;;;17.30;99.90;;;;;;5000910;28;20460;-59
2022/07/23 06:41:40;;;;;;;57.95;30.13;;;17.30;99.90;;;;;;5007191;28;20030;-60
2022/07/23 06:44:05;;;;;;;62.25;31.25;;;17.40;99.90;;;;;;5004430;28;20492;-60
2022/07/23 06:46:31;;;;;;;61.05;31.80;;;17.40;99.90;;;;;;5006895;28;20077;-59
2022/07/23 06:48:57;;;;;;;54.38;29.17;;;17.50;99.90;;;;;;5005933;28;20492;-58
2022/07/23 06:51:22;;;;;;;57.72;30.52;;;17.50;99.90;;;;;;5007814;28;20018;-60
2022/07/23 06:53:48;;;;;;;53.53;27.73;;;17.60;99.90;;;;;;5008473;28;20037;-59
2022/07/23 06:56:13;;;;;;;53.80;27.50;;;17.60;99.90;;;;;;5004967;28;20030;-60
2022/07/23 06:58:39;;;;;;;55.58;29.50;;;17.70;99.90;;;;;;5002631;28;20030;-58
2022/07/23 07:01:04;;;;;;;51.47;28.92;;;17.70;99.90;;;;;;5003401;28;20405;-60
2022/07/23 07:03:30;;;;;;;51.50;28.52;;;17.80;99.90;;;;;;5002672;28;20057;-60
2022/07/23 07:05:57;;;;;;;51.85;29.00;;;17.90;99.90;;;;;;5008345;28;20042;-63
2022/07/23 07:08:23;;;;;;;50.00;27.40;;;17.90;99.90;;;;;;5005213;28;20018;-64
2022/07/23 07:10:48;;;;;;;54.50;29.63;;;18.00;99.90;;;;;;5010813;28;20038;-64
2022/07/23 07:13:14;;;;;;;53.60;27.88;;;18.00;99.90;;;;;;5009397;28;20022;-63
2022/07/23 07:15:40;;;;;;;48.33;26.30;;;18.00;99.90;;;;;;5014440;28;20400;-64
2022/07/23 07:18:05;;;;;;;44.78;25.52;;;18.10;99.90;;;;;;5010227;28;20072;-64
2022/07/23 07:20:31;;;;;;;46.60;26.63;;;18.00;99.90;;;;;;5007790;28;20026;-64
2022/07/23 07:22:56;;;;;;;42.65;23.98;;;18.00;99.90;;;;;;5012587;28;20045;-63
2022/07/23 07:25:22;;;;;;;44.70;25.40;;;18.10;99.90;;;;;;5013175;28;20507;-64
2022/07/23 07:27:47;;;;;;;37.20;21.52;;;18.20;99.90;;;;;;5008632;28;20083;-63
2022/07/23 07:30:13;;;;;;;31.05;20.25;;;18.20;99.90;;;;;;5007319;28;20534;-64
2022/07/23 07:32:39;;;;;;;36.50;19.55;;;18.30;99.90;;;;;;5008342;28;20022;-63
2022/07/23 07:35:06;;;;;;;36.63;18.85;;;18.40;99.90;;;;;;5010236;28;20026;-64
2022/07/23 07:37:31;;;;;;;26.80;16.60;;;18.40;99.90;;;;;;5008870;28;20022;-64
2022/07/23 07:39:57;;;;;;;27.05;15.52;;;18.50;99.90;;;;;;5006694;28;20053;-64
2022/07/23 07:42:23;;;;;;;28.48;14.63;;;18.50;99.90;;;;;;5006787;28;20503;-63
2022/07/23 07:44:48;;;;;;;27.30;14.07;;;18.50;99.90;;;;;;5005229;28;20026;-62
2022/07/23 07:47:15;;;;;;;24.90;15.63;;;18.60;99.90;;;;;;5006862;28;20018;-62
2022/07/23 07:49:41;;;;;;;28.52;14.82;;;18.60;99.90;;;;;;5009073;28;20017;-64
2022/07/23 07:52:07;;;;;;;32.40;16.38;;;18.60;99.90;;;;;;5011438;28;20041;-63
2022/07/23 07:54:32;;;;;;;24.52;15.02;;;18.70;99.90;;;;;;5009737;28;20030;-63
2022/07/23 07:56:58;;;;;;;29.48;18.48;;;18.70;99.90;;;;;;5010100;28;20029;-64
2022/07/23 07:59:24;;;;;;;27.38;16.55;;;18.80;99.90;;;;;;5006703;28;20022;-62
2022/07/23 08:01:49;;;;;;;31.52;17.38;;;18.90;99.90;;;;;;5008793;28;20044;-64
2022/07/23 08:04:15;;;;;;;27.75;16.27;;;19.00;99.90;;;;;;5012943;28;20040;-62
2022/07/23 08:06:40;;;;;;;24.90;14.77;;;19.10;99.90;;;;;;5009326;28;20100;-64
2022/07/23 08:09:06;;;;;;;24.83;15.70;;;19.10;99.90;;;;;;5010114;28;20026;-63
2022/07/23 08:11:31;;;;;;;37.80;20.90;;;19.20;99.90;;;;;;5007992;28;20026;-63
2022/07/23 08:13:57;;;;;;;37.75;18.17;;;19.20;99.90;;;;;;5005975;28;20053;-63
2022/07/23 08:16:22;;;;;;;36.30;21.30;;;19.30;99.90;;;;;;5006170;28;20025;-64
2022/07/23 08:18:48;;;;;;;40.88;21.13;;;19.30;99.90;;;;;;5009062;28;20029;-64
2022/07/23 08:21:13;;;;;;;37.33;20.55;;;19.30;99.90;;;;;;5007094;28;20034;-62
2022/07/23 08:23:39;;;;;;;32.30;20.33;;;19.40;99.90;;;;;;5006494;28;20036;-62
2022/07/23 08:26:05;;;;;;;33.22;18.13;;;19.40;99.90;;;;;;5009360;28;20938;-64
2022/07/23 08:28:32;;;;;;;29.80;17.20;;;19.60;99.90;;;;;;5005471;28;20065;-64
2022/07/23 08:30:59;;;;;;;42.65;19.40;;;19.70;99.90;;;;;;5008612;28;20033;-64
2022/07/23 08:33:25;;;;;;;40.03;19.05;;;19.70;99.90;;;;;;5006948;28;20029;-64
2022/07/23 08:35:52;;;;;;;34.67;20.05;;;19.70;99.90;;;;;;5015336;28;20022;-63
2022/07/23 08:38:20;;;;;;;33.03;19.45;;;19.70;99.90;;;;;;5007707;28;20088;-63
2022/07/23 08:40:48;;;;;;;28.38;18.13;;;19.60;99.90;;;;;;5008800;28;20365;-64
2022/07/23 08:43:16;;;;;;;31.95;20.08;;;19.60;99.90;;;;;;5009477;28;20037;-63
2022/07/23 08:45:44;;;;;;;24.45;16.60;;;19.80;99.90;;;;;;5008630;28;20049;-64
2022/07/23 08:48:15;;;;;;;27.00;16.63;;;19.80;99.90;;;;;;5018664;28;20383;-63
2022/07/23 08:50:44;;;;;;;25.98;16.27;;;20.00;99.90;;;;;;5006229;28;20484;-63
2022/07/23 08:53:10;;;;;;;28.55;17.75;;;20.10;99.90;;;;;;5006690;28;20030;-63
2022/07/23 08:55:36;;;;;;;28.48;18.02;;;20.10;99.90;;;;;;5011029;28;20053;-64
2022/07/23 08:58:02;;;;;;;25.17;16.60;;;20.20;99.90;;;;;;5008043;28;20053;-64
2022/07/23 09:00:28;;;;;;;22.73;14.75;;;20.30;99.90;;;;;;5008264;28;20025;-64
2022/07/23 09:02:54;;;;;;;23.10;13.93;;;20.30;99.90;;;;;;5014366;28;20030;-64
2022/07/23 09:05:20;;;;;;;28.17;17.48;;;20.40;99.90;;;;;;5042445;23;20555;-63
2022/07/23 09:08:08;;;;;;;23.70;16.55;;;20.60;99.90;;;;;;5027736;28;20029;-64
2022/07/23 09:10:55;;;;;;;24.75;14.52;;;20.80;99.90;;;;;;5027213;28;20585;-64
2022/07/23 09:13:45;;;;;;;25.77;15.38;;;20.90;99.90;;;;;;5026166;28;20055;-65
2022/07/23 09:16:31;;;;;;;25.70;16.10;;;21.00;99.90;;;;;;5022315;28;20590;-65
2022/07/23 09:19:04;;;;;;;28.25;19.05;;;21.10;99.90;;;;;;5022561;28;20128;-67
2022/07/23 09:21:38;;;;;;;27.90;18.77;;;21.30;99.90;;;;;;5022157;28;20037;-64
2022/07/23 09:24:09;;;;;;;31.00;17.33;;;21.30;99.90;;;;;;5025996;28;20029;-63
2022/07/23 09:26:47;;;;;;;22.33;15.25;;;21.40;99.90;;;;;;5031542;28;20379;-64
2022/07/23 09:29:16;;;;;;;22.38;15.95;;;21.40;99.90;;;;;;5025923;28;20025;-63
2022/07/23 09:31:44;;;;;;;31.42;18.35;;;21.40;99.90;;;;;;5032616;28;20025;-64
2022/07/23 09:34:21;;;;;;;26.95;17.30;;;21.40;99.90;;;;;;5027951;28;20053;-63
2022/07/23 09:36:48;;;;;;;25.45;15.90;;;21.50;99.90;;;;;;5032913;28;20071;-64
2022/07/23 09:39:17;;;;;;;24.80;18.92;;;21.50;99.90;;;;;;5032750;28;20030;-62
2022/07/23 09:41:45;;;;;;;24.58;17.33;;;21.60;99.90;;;;;;5036479;28;20025;-63
2022/07/23 09:44:19;;;;;;;27.60;16.77;;;21.50;99.90;;;;;;5031351;28;20291;-64
2022/07/23 09:46:50;;;;;;;29.40;21.40;;;21.60;99.90;;;;;;5034720;28;20021;-64
2022/07/23 09:49:23;;;;;;;27.85;17.20;;;21.70;99.90;;;;;;5032788;28;20038;-63
2022/07/23 09:51:54;;;;;;;26.92;20.15;;;21.90;99.90;;;;;;5030256;28;20480;-63
2022/07/23 09:54:31;;;;;;;25.20;19.35;;;22.00;99.90;;;;;;5032055;28;20018;-64
2022/07/23 09:56:58;;;;;;;27.10;17.88;;;22.10;99.90;;;;;;5025341;28;20029;-63
2022/07/23 09:59:30;;;;;;;22.88;16.00;;;22.20;99.90;;;;;;5031956;28;20109;-63
2022/07/23 10:01:59;;;;;;;25.30;16.50;;;22.40;99.90;;;;;;5029054;28;20025;-62
2022/07/23 10:04:25;;;;;;;23.10;15.27;;;22.50;99.90;;;;;;5030394;28;20022;-66
2022/07/23 10:06:54;;;;;;;23.90;15.15;;;22.60;99.90;;;;;;5023578;28;20040;-63
2022/07/23 10:09:30;;;;;;;21.25;16.00;;;22.70;99.90;;;;;;5022373;28;20029;-65
2022/07/23 10:12:06;;;;;;;20.52;15.40;;;22.90;99.90;;;;;;5025587;28;20060;-66
2022/07/23 10:14:33;;;;;;;20.40;13.60;;;22.90;99.90;;;;;;5024791;28;20702;-63
2022/07/23 10:17:01;;;;;;;19.05;12.27;;;22.80;99.90;;;;;;5028869;28;20033;-64
2022/07/23 10:19:27;;;;;;;29.88;14.25;;;23.00;99.90;;;;;;5029376;28;20021;-64
2022/07/23 10:21:58;;;;;;;20.85;12.15;;;23.20;99.90;;;;;;5029032;28;20430;-64
2022/07/23 10:24:58;;;;;;;14.82;11.60;;;23.20;99.90;;;;;;5026951;28;20052;-64
2022/07/23 10:27:43;;;;;;;21.23;14.07;;;23.20;99.90;;;;;;5026694;28;20052;-64
2022/07/23 10:30:30;;;;;;;15.23;11.05;;;23.40;99.90;;;;;;5026892;28;20563;-67
2022/07/23 10:33:27;;;;;;;17.42;10.95;;;23.60;99.90;;;;;;5029920;28;20026;-62
2022/07/23 10:36:11;;;;;;;17.55;10.50;;;23.50;99.90;;;;;;5025088;28;20034;-62
2022/07/23 10:38:52;;;;;;;14.18;10.30;;;23.50;99.90;;;;;;5024025;28;20052;-63
2022/07/23 10:41:40;;;;;;;21.80;13.73;;;23.70;99.90;;;;;;5027718;28;20948;-63
2022/07/23 10:44:20;;;;;;;17.10;11.80;;;23.70;99.90;;;;;;5023503;28;20491;-62
2022/07/23 10:49:42;;;;;;;11.18;8.10;;;24.10;99.90;;;;;;5024522;28;20033;-61
2022/07/23 10:52:14;;;;;;;13.02;8.82;;;24.00;99.90;;;;;;5024986;28;20029;-61
2022/07/23 10:54:45;;;;;;;19.80;10.68;;;24.00;99.90;;;;;;5021355;28;20479;-62
2022/07/23 10:57:12;;;;;;;12.98;7.32;;;24.00;99.90;;;;;;5030492;28;20498;-62
2022/07/23 11:00:00;;;;;;;13.02;7.18;;;24.10;99.90;;;;;;5041587;28;20095;-62
2022/07/23 11:02:29;;;;;;;13.85;8.50;;;24.30;99.90;;;;;;5028253;28;20028;-61
2022/07/23 11:05:01;;;;;;;11.23;7.80;;;24.70;99.90;;;;;;5028047;28;20485;-62
2022/07/23 11:07:27;;;;;;;16.25;8.65;;;24.80;99.90;;;;;;5033616;28;20033;-63
2022/07/23 11:09:53;;;;;;;13.82;8.10;;;25.00;99.90;;;;;;5022108;28;20045;-62
2022/07/23 11:12:19;;;;;;;14.05;8.45;;;25.00;99.90;;;;;;5022159;28;20021;-60
2022/07/23 11:15:01;;;;;;;15.10;8.30;;;25.20;99.90;;;;;;5023485;28;20080;-61
2022/07/23 11:17:27;;;;;;;12.50;8.10;;;25.00;99.90;;;;;;5023123;28;20025;-63
2022/07/23 11:20:17;;;;;;;14.43;8.90;;;24.80;99.90;;;;;;5025768;28;20037;-62
2022/07/23 11:22:42;;;;;;;20.10;9.73;;;24.90;99.90;;;;;;5023470;28;20484;-62
2022/07/23 11:25:08;;;;;;;13.88;8.43;;;24.80;99.90;;;;;;5025947;28;20037;-61
2022/07/23 11:27:42;;;;;;;15.98;9.43;;;24.70;99.90;;;;;;5024426;28;20105;-63
2022/07/23 11:30:09;;;;;;;17.50;9.18;;;25.10;99.90;;;;;;5022923;28;20025;-61
2022/07/23 11:32:38;;;;;;;14.55;8.77;;;25.40;99.90;;;;;;5021731;28;20548;-62
2022/07/23 11:35:22;;;;;;;12.60;8.45;;;25.50;99.90;;;;;;5025831;28;20499;-62
2022/07/23 11:37:48;;;;;;;10.43;7.07;;;25.90;99.90;;;;;;5019265;28;20124;-62
2022/07/23 11:40:16;;;;;;;13.95;8.25;;;25.90;99.90;;;;;;5021317;28;20496;-63
2022/07/23 11:42:57;;;;;;;12.13;8.05;;;25.80;99.90;;;;;;5026402;28;20057;-61
2022/07/23 11:45:26;;;;;;;10.98;6.50;;;26.10;99.90;;;;;;5023891;28;20025;-63
2022/07/23 11:47:51;;;;;;;11.20;7.05;;;25.80;99.90;;;;;;5020879;28;20022;-62
2022/07/23 11:50:17;;;;;;;9.60;6.55;;;26.00;99.90;;;;;;5025779;28;20029;-62
2022/07/23 11:52:43;;;;;;;17.08;7.07;;;26.00;99.90;;;;;;5024277;28;20315;-62
2022/07/23 11:55:11;;;;;;;9.95;5.93;;;26.10;99.90;;;;;;5026246;28;20119;-64
2022/07/23 11:57:40;;;;;;;9.77;4.85;;;26.20;99.90;;;;;;5024843;28;20485;-61
2022/07/23 12:00:09;;;;;;;7.28;4.88;;;26.30;99.90;;;;;;5021375;28;20030;-62
2022/07/23 12:02:35;;;;;;;5.32;4.63;;;26.40;99.90;;;;;;5027569;28;20013;-61
2022/07/23 12:05:00;;;;;;;7.35;5.47;;;26.30;99.90;;;;;;5019970;28;20033;-63
2022/07/23 12:07:40;;;;;;;9.85;5.60;;;26.50;99.90;;;;;;5018748;28;20708;-62
2022/07/23 12:10:20;;;;;;;5.80;4.65;;;26.40;99.90;;;;;;5021480;28;20029;-63
2022/07/23 12:12:49;;;;;;;9.18;4.30;;;26.40;99.90;;;;;;5024400;28;20864;-63
2022/07/23 12:15:16;;;;;;;7.55;4.68;;;26.50;99.90;;;;;;5023333;28;20426;-62
2022/07/23 12:17:44;;;;;;;8.13;4.05;;;26.80;99.90;;;;;;5025686;28;20155;-61
2022/07/23 12:20:13;;;;;;;6.45;4.65;;;27.10;99.90;;;;;;5024148;28;20027;-62
2022/07/23 12:22:41;;;;;;;8.25;5.47;;;27.30;99.90;;;;;;5021442;28;20018;-62
2022/07/23 12:25:13;;;;;;;9.43;5.93;;;27.00;99.90;;;;;;5028301;28;20059;-62
2022/07/23 12:27:39;;;;;;;6.72;5.63;;;26.70;99.90;;;;;;5027979;28;20021;-63
2022/07/23 12:30:23;;;;;;;8.27;5.25;;;26.90;99.90;;;;;;5024087;28;20042;-63
2022/07/23 12:32:51;;;;;;;5.53;4.78;;;27.00;99.90;;;;;;5028643;28;20109;-62
2022/07/23 12:35:18;;;;;;;7.50;4.85;;;27.20;99.90;;;;;;5021128;28;20103;-64
2022/07/23 12:37:47;;;;;;;7.82;4.60;;;27.40;99.90;;;;;;5025806;28;20056;-63